sensor_id;sensor_type;location;lat;lon;timestamp;pressure;altitude;pressure_sealevel;temperature;humidity
34235;BME280;20500;49.856;20.290;2024-03-23T00:53:54;98314.40;;;9.22;77.97
34235;BME280;20500;49.856;20.290;2024-03-23T00:56:59;98312.41;;;9.20;78.04
34235;BME280;20500;49.856;20.290;2024-03-23T01:00:06;98310.08;;;9.17;77.87
34235;BME280;20500;49.856;20.290;2024-03-23T01:03:14;98310.23;;;9.16;78.01
34235;BME280;20500;49.856;20.290;2024-03-23T01:06:19;98303.92;;;9.16;77.94
34235;BME280;20500;49.856;20.290;2024-03-23T01:09:24;98304.02;;;9.16;78.02
34235;BME280;20500;49.856;20.290;2024-03-23T01:12:29;98302.65;;;9.17;78.05
34235;BME280;20500;49.856;20.290;2024-03-23T01:15:34;98300.84;;;9.13;77.87
34235;BME280;20500;49.856;20.290;2024-03-23T01:18:39;98297.60;;;9.07;77.67
34235;BME280;20500;49.856;20.290;2024-03-23T01:21:44;98290.65;;;9.05;77.73
34235;BME280;20500;49.856;20.290;2024-03-23T01:24:49;98287.25;;;9.04;77.47
34235;BME280;20500;49.856;20.290;2024-03-23T01:27:53;98289.65;;;9.05;77.58
34235;BME280;20500;49.856;20.290;2024-03-23T01:30:58;98284.21;;;9.08;77.64
34235;BME280;20500;49.856;20.290;2024-03-23T01:34:03;98280.09;;;9.11;77.87
34235;BME280;20500;49.856;20.290;2024-03-23T01:37:08;98273.79;;;9.11;77.76
34235;BME280;20500;49.856;20.290;2024-03-23T01:40:15;98269.89;;;9.05;77.56
34235;BME280;20500;49.856;20.290;2024-03-23T01:43:21;98270.55;;;9.06;77.59
34235;BME280;20500;49.856;20.290;2024-03-23T01:46:26;98269.42;;;9.09;77.75
34235;BME280;20500;49.856;20.290;2024-03-23T01:49:31;98267.98;;;9.09;77.91
34235;BME280;20500;49.856;20.290;2024-03-23T01:52:36;98265.79;;;9.08;78.02
34235;BME280;20500;49.856;20.290;2024-03-23T01:55:41;98263.88;;;9.06;77.79
34235;BME280;20500;49.856;20.290;2024-03-23T01:58:46;98261.62;;;9.05;77.42
34235;BME280;20500;49.856;20.290;2024-03-23T02:01:51;98259.86;;;9.08;77.44
34235;BME280;20500;49.856;20.290;2024-03-23T02:04:56;98254.60;;;9.09;77.23
34235;BME280;20500;49.856;20.290;2024-03-23T02:08:01;98253.25;;;9.09;76.88
34235;BME280;20500;49.856;20.290;2024-03-23T02:11:06;98245.06;;;9.12;76.87
34235;BME280;20500;49.856;20.290;2024-03-23T02:14:11;98241.23;;;9.14;76.63
34235;BME280;20500;49.856;20.290;2024-03-23T02:17:17;98235.46;;;9.16;76.45
34235;BME280;20500;49.856;20.290;2024-03-23T02:20:22;98232.01;;;9.18;76.37
34235;BME280;20500;49.856;20.290;2024-03-23T02:23:27;98224.48;;;9.18;76.18
34235;BME280;20500;49.856;20.290;2024-03-23T02:26:32;98223.42;;;9.19;76.27
34235;BME280;20500;49.856;20.290;2024-03-23T02:29:37;98220.94;;;9.22;76.36
34235;BME280;20500;49.856;20.290;2024-03-23T02:32:42;98218.16;;;9.24;76.30
34235;BME280;20500;49.856;20.290;2024-03-23T02:35:48;98216.80;;;9.26;76.18
34235;BME280;20500;49.856;20.290;2024-03-23T02:38:53;98212.45;;;9.24;76.13
34235;BME280;20500;49.856;20.290;2024-03-23T02:41:58;98206.63;;;9.23;76.00
34235;BME280;20500;49.856;20.290;2024-03-23T02:45:05;98200.72;;;9.23;75.96
34235;BME280;20500;49.856;20.290;2024-03-23T02:48:10;98194.79;;;9.22;75.83
34235;BME280;20500;49.856;20.290;2024-03-23T02:51:15;98197.65;;;9.24;75.68
34235;BME280;20500;49.856;20.290;2024-03-23T02:54:20;98193.21;;;9.28;75.40
34235;BME280;20500;49.856;20.290;2024-03-23T02:57:25;98189.33;;;9.34;75.38
34235;BME280;20500;49.856;20.290;2024-03-23T03:00:30;98186.66;;;9.40;75.28
34235;BME280;20500;49.856;20.290;2024-03-23T03:03:35;98187.29;;;9.43;75.01
34235;BME280;20500;49.856;20.290;2024-03-23T03:06:41;98183.45;;;9.45;74.87
34235;BME280;20500;49.856;20.290;2024-03-23T03:09:47;98177.71;;;9.47;74.61
34235;BME280;20500;49.856;20.290;2024-03-23T03:12:51;98178.05;;;9.50;74.63
34235;BME280;20500;49.856;20.290;2024-03-23T03:15:57;98175.46;;;9.55;74.38
34235;BME280;20500;49.856;20.290;2024-03-23T03:19:02;98173.71;;;9.57;74.30
34235;BME280;20500;49.856;20.290;2024-03-23T03:22:07;98173.15;;;9.59;74.16
34235;BME280;20500;49.856;20.290;2024-03-23T03:25:12;98171.58;;;9.60;74.08
34235;BME280;20500;49.856;20.290;2024-03-23T03:28:17;98165.59;;;9.60;73.91
34235;BME280;20500;49.856;20.290;2024-03-23T03:31:23;98164.05;;;9.60;73.93
34235;BME280;20500;49.856;20.290;2024-03-23T03:34:28;98162.03;;;9.60;73.96
34235;BME280;20500;49.856;20.290;2024-03-23T03:37:33;98163.08;;;9.59;73.75
34235;BME280;20500;49.856;20.290;2024-03-23T03:40:38;98163.88;;;9.59;73.67
34235;BME280;20500;49.856;20.290;2024-03-23T03:43:43;98161.58;;;9.59;73.56
34235;BME280;20500;49.856;20.290;2024-03-23T03:46:48;98156.73;;;9.58;73.26
34235;BME280;20500;49.856;20.290;2024-03-23T03:49:53;98151.21;;;9.59;72.91
34235;BME280;20500;49.856;20.290;2024-03-23T03:52:59;98144.86;;;9.59;72.85
34235;BME280;20500;49.856;20.290;2024-03-23T03:56:05;98141.84;;;9.59;72.91
34235;BME280;20500;49.856;20.290;2024-03-23T03:59:10;98135.93;;;9.56;73.03
34235;BME280;20500;49.856;20.290;2024-03-23T04:02:15;98133.45;;;9.53;73.15
34235;BME280;20500;49.856;20.290;2024-03-23T04:05:20;98130.90;;;9.49;73.15
34235;BME280;20500;49.856;20.290;2024-03-23T04:08:26;98125.73;;;9.46;73.20
34235;BME280;20500;49.856;20.290;2024-03-23T04:11:31;98133.99;;;9.42;73.18
34235;BME280;20500;49.856;20.290;2024-03-23T04:14:36;98130.13;;;9.40;73.00
34235;BME280;20500;49.856;20.290;2024-03-23T04:17:41;98124.51;;;9.31;72.77
34235;BME280;20500;49.856;20.290;2024-03-23T04:20:46;98122.75;;;9.25;72.83
34235;BME280;20500;49.856;20.290;2024-03-23T04:23:51;98121.48;;;9.24;72.66
34235;BME280;20500;49.856;20.290;2024-03-23T04:26:57;98117.66;;;9.26;72.68
34235;BME280;20500;49.856;20.290;2024-03-23T04:30:03;98117.75;;;9.29;72.70
34235;BME280;20500;49.856;20.290;2024-03-23T04:33:13;98114.70;;;9.27;72.59
34235;BME280;20500;49.856;20.290;2024-03-23T04:36:18;98113.55;;;9.25;72.67
34235;BME280;20500;49.856;20.290;2024-03-23T04:39:23;98112.62;;;9.18;72.52
34235;BME280;20500;49.856;20.290;2024-03-23T04:42:28;98110.55;;;9.10;72.38
34235;BME280;20500;49.856;20.290;2024-03-23T04:45:33;98113.42;;;9.05;72.30
34235;BME280;20500;49.856;20.290;2024-03-23T04:48:38;98117.48;;;9.01;72.35
34235;BME280;20500;49.856;20.290;2024-03-23T04:51:43;98115.34;;;8.98;72.47
34235;BME280;20500;49.856;20.290;2024-03-23T04:54:48;98112.30;;;8.95;72.25
34235;BME280;20500;49.856;20.290;2024-03-23T04:57:53;98107.20;;;8.94;72.24
34235;BME280;20500;49.856;20.290;2024-03-23T05:00:58;98100.42;;;8.96;72.37
34235;BME280;20500;49.856;20.290;2024-03-23T05:04:04;98098.77;;;8.96;72.12
34235;BME280;20500;49.856;20.290;2024-03-23T05:07:09;98098.30;;;8.97;72.26
34235;BME280;20500;49.856;20.290;2024-03-23T05:10:15;98091.27;;;9.01;72.14
34235;BME280;20500;49.856;20.290;2024-03-23T05:13:20;98088.58;;;9.05;72.05
34235;BME280;20500;49.856;20.290;2024-03-23T05:16:25;98086.44;;;9.09;72.15
34235;BME280;20500;49.856;20.290;2024-03-23T05:19:30;98084.54;;;9.11;72.27
34235;BME280;20500;49.856;20.290;2024-03-23T05:22:35;98077.67;;;9.11;72.43
34235;BME280;20500;49.856;20.290;2024-03-23T05:25:40;98077.30;;;9.09;72.56
34235;BME280;20500;49.856;20.290;2024-03-23T05:28:45;98076.60;;;9.07;72.47
34235;BME280;20500;49.856;20.290;2024-03-23T05:31:52;98082.54;;;9.06;72.64
34235;BME280;20500;49.856;20.290;2024-03-23T05:35:00;98076.27;;;9.04;72.69
34235;BME280;20500;49.856;20.290;2024-03-23T05:38:05;98077.97;;;8.99;72.60
34235;BME280;20500;49.856;20.290;2024-03-23T05:41:10;98067.37;;;9.00;72.73
34235;BME280;20500;49.856;20.290;2024-03-23T05:44:15;98066.48;;;9.04;72.83
34235;BME280;20500;49.856;20.290;2024-03-23T05:47:20;98066.64;;;9.08;72.80
34235;BME280;20500;49.856;20.290;2024-03-23T05:50:25;98065.06;;;9.11;72.64
34235;BME280;20500;49.856;20.290;2024-03-23T05:53:30;98062.53;;;9.14;72.60
34235;BME280;20500;49.856;20.290;2024-03-23T05:56:35;98047.34;;;9.15;72.45
34235;BME280;20500;49.856;20.290;2024-03-23T05:59:40;98045.78;;;9.19;72.39
34235;BME280;20500;49.856;20.290;2024-03-23T06:02:44;98045.08;;;9.25;72.62
34235;BME280;20500;49.856;20.290;2024-03-23T06:05:49;98044.70;;;9.30;72.84
34235;BME280;20500;49.856;20.290;2024-03-23T06:08:54;98051.23;;;9.31;73.00
34235;BME280;20500;49.856;20.290;2024-03-23T06:11:59;98054.16;;;9.34;73.05
34235;BME280;20500;49.856;20.290;2024-03-23T06:15:06;98047.47;;;9.34;72.93
34235;BME280;20500;49.856;20.290;2024-03-23T06:18:17;98043.85;;;9.38;73.11
34235;BME280;20500;49.856;20.290;2024-03-23T06:21:22;98050.09;;;9.45;73.17
34235;BME280;20500;49.856;20.290;2024-03-23T06:24:27;98049.17;;;9.54;73.36
34235;BME280;20500;49.856;20.290;2024-03-23T06:27:32;98045.73;;;9.59;73.53
34235;BME280;20500;49.856;20.290;2024-03-23T06:30:38;98048.94;;;9.65;73.52
34235;BME280;20500;49.856;20.290;2024-03-23T06:33:43;98036.76;;;9.68;73.53
34235;BME280;20500;49.856;20.290;2024-03-23T06:36:49;98001.11;;;9.64;73.35
34235;BME280;20500;49.856;20.290;2024-03-23T06:39:53;97992.33;;;9.62;73.38
34235;BME280;20500;49.856;20.290;2024-03-23T06:42:57;97995.83;;;9.69;73.80
34235;BME280;20500;49.856;20.290;2024-03-23T06:46:03;97994.58;;;9.80;73.97
34235;BME280;20500;49.856;20.290;2024-03-23T06:49:08;97989.52;;;9.91;74.15
34235;BME280;20500;49.856;20.290;2024-03-23T06:52:14;97987.27;;;10.00;73.99
34235;BME280;20500;49.856;20.290;2024-03-23T06:55:19;97983.66;;;10.06;73.88
34235;BME280;20500;49.856;20.290;2024-03-23T06:58:25;97987.41;;;10.16;73.99
34235;BME280;20500;49.856;20.290;2024-03-23T07:01:30;97997.37;;;10.28;73.95
34235;BME280;20500;49.856;20.290;2024-03-23T07:04:35;98002.88;;;10.35;74.07
34235;BME280;20500;49.856;20.290;2024-03-23T07:07:40;98005.05;;;10.39;73.85
34235;BME280;20500;49.856;20.290;2024-03-23T07:10:45;98010.71;;;10.44;73.85
34235;BME280;20500;49.856;20.290;2024-03-23T07:13:52;98005.06;;;10.47;73.70
34235;BME280;20500;49.856;20.290;2024-03-23T07:16:58;97997.08;;;10.56;73.65
34235;BME280;20500;49.856;20.290;2024-03-23T07:20:05;97998.01;;;10.70;73.83
34235;BME280;20500;49.856;20.290;2024-03-23T07:23:14;98003.69;;;10.85;73.71
34235;BME280;20500;49.856;20.290;2024-03-23T07:26:19;98002.90;;;10.97;73.70
34235;BME280;20500;49.856;20.290;2024-03-23T07:29:24;98001.80;;;11.11;74.04
34235;BME280;20500;49.856;20.290;2024-03-23T07:32:29;98000.23;;;11.23;74.12
34235;BME280;20500;49.856;20.290;2024-03-23T07:35:34;98001.11;;;11.35;74.25
34235;BME280;20500;49.856;20.290;2024-03-23T07:38:41;97994.98;;;11.44;74.14
34235;BME280;20500;49.856;20.290;2024-03-23T07:41:55;97992.95;;;11.52;74.02
34235;BME280;20500;49.856;20.290;2024-03-23T07:45:00;97987.67;;;11.62;74.30
34235;BME280;20500;49.856;20.290;2024-03-23T07:48:08;97983.43;;;11.75;74.30
34235;BME280;20500;49.856;20.290;2024-03-23T07:51:17;97982.89;;;11.88;74.27
34235;BME280;20500;49.856;20.290;2024-03-23T07:54:23;97979.21;;;12.02;74.34
34235;BME280;20500;49.856;20.290;2024-03-23T07:57:27;97975.56;;;12.17;74.19
34235;BME280;20500;49.856;20.290;2024-03-23T08:00:32;97974.77;;;12.34;74.13
34235;BME280;20500;49.856;20.290;2024-03-23T08:03:38;97972.10;;;12.51;74.04
34235;BME280;20500;49.856;20.290;2024-03-23T08:06:44;97965.83;;;12.70;73.93
34235;BME280;20500;49.856;20.290;2024-03-23T08:09:53;97959.23;;;12.85;73.52
34235;BME280;20500;49.856;20.290;2024-03-23T08:12:58;97949.10;;;12.98;73.40
34235;BME280;20500;49.856;20.290;2024-03-23T08:16:04;97940.77;;;13.08;73.11
34235;BME280;20500;49.856;20.290;2024-03-23T08:19:09;97936.77;;;13.16;72.85
34235;BME280;20500;49.856;20.290;2024-03-23T08:22:14;97934.80;;;13.25;72.68
34235;BME280;20500;49.856;20.290;2024-03-23T08:25:19;97934.14;;;13.33;72.44
34235;BME280;20500;49.856;20.290;2024-03-23T08:28:24;97920.24;;;13.38;72.09
34235;BME280;20500;49.856;20.290;2024-03-23T08:31:30;97913.61;;;13.44;71.91
34235;BME280;20500;49.856;20.290;2024-03-23T08:34:35;97914.63;;;13.50;71.96
34235;BME280;20500;49.856;20.290;2024-03-23T08:37:39;97914.48;;;13.58;71.65
34235;BME280;20500;49.856;20.290;2024-03-23T08:40:45;97909.42;;;13.65;71.25
34235;BME280;20500;49.856;20.290;2024-03-23T08:43:50;97907.37;;;13.72;71.08
34235;BME280;20500;49.856;20.290;2024-03-23T08:46:58;97911.85;;;13.82;71.04
34235;BME280;20500;49.856;20.290;2024-03-23T08:50:03;97908.25;;;13.94;70.95
34235;BME280;20500;49.856;20.290;2024-03-23T08:53:08;97902.77;;;14.02;70.47
34235;BME280;20500;49.856;20.290;2024-03-23T08:56:13;97899.98;;;14.10;70.26
34235;BME280;20500;49.856;20.290;2024-03-23T08:59:18;97891.13;;;14.19;70.05
34235;BME280;20500;49.856;20.290;2024-03-23T09:02:22;97878.26;;;14.28;69.86
34235;BME280;20500;49.856;20.290;2024-03-23T09:05:27;97877.60;;;14.35;69.60
34235;BME280;20500;49.856;20.290;2024-03-23T09:08:34;97872.05;;;14.44;69.48
34235;BME280;20500;49.856;20.290;2024-03-23T09:11:39;97863.97;;;14.55;69.14
34235;BME280;20500;49.856;20.290;2024-03-23T09:14:44;97853.34;;;14.67;68.89
34235;BME280;20500;49.856;20.290;2024-03-23T09:17:49;97851.29;;;14.77;68.61
34235;BME280;20500;49.856;20.290;2024-03-23T09:20:53;97846.56;;;14.89;68.35
34235;BME280;20500;49.856;20.290;2024-03-23T09:23:59;97837.72;;;14.97;67.98
34235;BME280;20500;49.856;20.290;2024-03-23T09:27:04;97833.36;;;15.06;67.85
34235;BME280;20500;49.856;20.290;2024-03-23T09:30:12;97831.30;;;15.15;67.62
34235;BME280;20500;49.856;20.290;2024-03-23T09:33:17;97829.02;;;15.26;67.71
34235;BME280;20500;49.856;20.290;2024-03-23T09:36:22;97821.58;;;15.38;67.33
34235;BME280;20500;49.856;20.290;2024-03-23T09:39:27;97818.50;;;15.46;66.97
34235;BME280;20500;49.856;20.290;2024-03-23T09:42:32;97819.39;;;15.47;66.54
34235;BME280;20500;49.856;20.290;2024-03-23T09:45:40;97810.66;;;15.46;66.44
34235;BME280;20500;49.856;20.290;2024-03-23T09:48:47;97805.92;;;15.48;66.10
34235;BME280;20500;49.856;20.290;2024-03-23T09:51:52;97800.73;;;15.54;65.72
34235;BME280;20500;49.856;20.290;2024-03-23T09:54:59;97793.71;;;15.62;65.42
34235;BME280;20500;49.856;20.290;2024-03-23T09:58:04;97785.24;;;15.68;65.01
34235;BME280;20500;49.856;20.290;2024-03-23T10:01:10;97778.52;;;15.78;64.74
34235;BME280;20500;49.856;20.290;2024-03-23T10:04:38;97772.46;;;15.89;64.48
34235;BME280;20500;49.856;20.290;2024-03-23T10:07:43;97763.38;;;16.00;64.15
34235;BME280;20500;49.856;20.290;2024-03-23T10:10:48;97761.38;;;16.09;63.90
34235;BME280;20500;49.856;20.290;2024-03-23T10:13:53;97754.78;;;16.19;63.61
34235;BME280;20500;49.856;20.290;2024-03-23T10:17:13;97752.02;;;16.32;63.07
34235;BME280;20500;49.856;20.290;2024-03-23T10:20:22;97749.46;;;16.45;63.00
34235;BME280;20500;49.856;20.290;2024-03-23T10:23:27;97742.96;;;16.59;62.74
34235;BME280;20500;49.856;20.290;2024-03-23T10:26:32;97735.27;;;16.72;62.47
34235;BME280;20500;49.856;20.290;2024-03-23T10:29:37;97732.42;;;16.82;62.30
34235;BME280;20500;49.856;20.290;2024-03-23T10:32:42;97726.40;;;16.88;61.92
34235;BME280;20500;49.856;20.290;2024-03-23T10:35:48;97717.54;;;16.91;61.73
34235;BME280;20500;49.856;20.290;2024-03-23T10:38:55;97710.35;;;16.92;61.24
34235;BME280;20500;49.856;20.290;2024-03-23T10:42:03;97704.30;;;16.92;60.97
34235;BME280;20500;49.856;20.290;2024-03-23T10:45:10;97700.04;;;16.93;60.85
34235;BME280;20500;49.856;20.290;2024-03-23T10:48:15;97695.44;;;16.95;60.44
34235;BME280;20500;49.856;20.290;2024-03-23T10:51:19;97689.94;;;16.95;60.24
34235;BME280;20500;49.856;20.290;2024-03-23T10:54:25;97681.20;;;17.02;59.99
34235;BME280;20500;49.856;20.290;2024-03-23T10:57:34;97672.17;;;17.10;59.90
34235;BME280;20500;49.856;20.290;2024-03-23T11:00:39;97663.39;;;17.15;59.54
34235;BME280;20500;49.856;20.290;2024-03-23T11:03:47;97659.61;;;17.21;59.29
34235;BME280;20500;49.856;20.290;2024-03-23T11:06:52;97652.37;;;17.31;59.34
34235;BME280;20500;49.856;20.290;2024-03-23T11:09:57;97646.02;;;17.40;58.99
34235;BME280;20500;49.856;20.290;2024-03-23T11:13:23;97634.64;;;17.46;58.59
34235;BME280;20500;49.856;20.290;2024-03-23T11:16:29;97618.14;;;17.53;58.42
34235;BME280;20500;49.856;20.290;2024-03-23T11:19:37;97614.44;;;17.59;58.21
34235;BME280;20500;49.856;20.290;2024-03-23T11:22:44;97599.70;;;17.61;57.80
34235;BME280;20500;49.856;20.290;2024-03-23T11:25:50;97593.73;;;17.64;57.66
34235;BME280;20500;49.856;20.290;2024-03-23T11:29:12;97589.20;;;17.69;57.53
34235;BME280;20500;49.856;20.290;2024-03-23T11:32:17;97581.48;;;17.74;57.45
34235;BME280;20500;49.856;20.290;2024-03-23T11:35:30;97569.35;;;17.77;57.12
34235;BME280;20500;49.856;20.290;2024-03-23T11:38:38;97560.80;;;17.79;56.95
34235;BME280;20500;49.856;20.290;2024-03-23T11:41:51;97558.27;;;17.79;56.72
34235;BME280;20500;49.856;20.290;2024-03-23T11:44:56;97554.48;;;17.84;56.63
34235;BME280;20500;49.856;20.290;2024-03-23T11:48:08;97550.27;;;17.88;56.42
34235;BME280;20500;49.856;20.290;2024-03-23T11:51:14;97541.66;;;17.94;56.11
34235;BME280;20500;49.856;20.290;2024-03-23T11:54:21;97532.95;;;18.04;56.32
34235;BME280;20500;49.856;20.290;2024-03-23T11:57:27;97526.10;;;18.12;55.96
34235;BME280;20500;49.856;20.290;2024-03-23T12:00:32;97524.60;;;18.18;55.56
34235;BME280;20500;49.856;20.290;2024-03-23T12:03:37;97523.20;;;18.25;55.20
34235;BME280;20500;49.856;20.290;2024-03-23T12:06:42;97510.10;;;18.31;55.09
34235;BME280;20500;49.856;20.290;2024-03-23T12:09:48;97504.55;;;18.34;54.88
34235;BME280;20500;49.856;20.290;2024-03-23T12:13:07;97496.79;;;18.36;54.68
34235;BME280;20500;49.856;20.290;2024-03-23T12:16:13;97492.16;;;18.38;54.53
34235;BME280;20500;49.856;20.290;2024-03-23T12:19:18;97482.80;;;18.39;54.26
34235;BME280;20500;49.856;20.290;2024-03-23T12:22:24;97475.80;;;18.42;54.15
34235;BME280;20500;49.856;20.290;2024-03-23T12:25:29;97469.75;;;18.41;54.02
34235;BME280;20500;49.856;20.290;2024-03-23T12:28:34;97461.48;;;18.37;53.81
34235;BME280;20500;49.856;20.290;2024-03-23T12:31:39;97454.38;;;18.39;53.58
34235;BME280;20500;49.856;20.290;2024-03-23T12:34:44;97446.88;;;18.44;53.48
34235;BME280;20500;49.856;20.290;2024-03-23T12:37:50;97439.55;;;18.46;53.35
34235;BME280;20500;49.856;20.290;2024-03-23T12:40:55;97433.38;;;18.45;53.05
34235;BME280;20500;49.856;20.290;2024-03-23T12:44:00;97432.06;;;18.43;52.83
34235;BME280;20500;49.856;20.290;2024-03-23T12:47:06;97421.20;;;18.40;52.72
34235;BME280;20500;49.856;20.290;2024-03-23T12:50:11;97407.97;;;18.38;52.60
34235;BME280;20500;49.856;20.290;2024-03-23T12:53:20;97399.92;;;18.37;52.42
34235;BME280;20500;49.856;20.290;2024-03-23T12:56:25;97391.01;;;18.38;52.02
34235;BME280;20500;49.856;20.290;2024-03-23T12:59:32;97382.58;;;18.42;51.85
34235;BME280;20500;49.856;20.290;2024-03-23T13:02:39;97367.30;;;18.44;51.86
34235;BME280;20500;49.856;20.290;2024-03-23T13:05:44;97360.20;;;18.46;51.94
34235;BME280;20500;49.856;20.290;2024-03-23T13:08:56;97357.94;;;18.50;51.56
34235;BME280;20500;49.856;20.290;2024-03-23T13:12:01;97350.66;;;18.58;51.30
34235;BME280;20500;49.856;20.290;2024-03-23T13:15:07;97344.84;;;18.60;50.89
34235;BME280;20500;49.856;20.290;2024-03-23T13:18:13;97338.66;;;18.60;51.04
34235;BME280;20500;49.856;20.290;2024-03-23T13:21:18;97333.25;;;18.59;50.72
34235;BME280;20500;49.856;20.290;2024-03-23T13:24:26;97326.59;;;18.57;50.45
34235;BME280;20500;49.856;20.290;2024-03-23T13:27:31;97313.85;;;18.57;50.33
34235;BME280;20500;49.856;20.290;2024-03-23T13:30:36;97305.77;;;18.55;50.21
34235;BME280;20500;49.856;20.290;2024-03-23T13:33:41;97299.73;;;18.54;50.46
34235;BME280;20500;49.856;20.290;2024-03-23T13:36:48;97295.44;;;18.51;50.20
34235;BME280;20500;49.856;20.290;2024-03-23T13:39:53;97294.79;;;18.49;49.98
34235;BME280;20500;49.856;20.290;2024-03-23T13:42:58;97288.79;;;18.47;49.90
34235;BME280;20500;49.856;20.290;2024-03-23T13:46:04;97277.27;;;18.46;49.71
34235;BME280;20500;49.856;20.290;2024-03-23T13:49:09;97272.58;;;18.46;49.68
34235;BME280;20500;49.856;20.290;2024-03-23T13:52:21;97264.21;;;18.47;49.54
34235;BME280;20500;49.856;20.290;2024-03-23T13:55:29;97261.13;;;18.48;49.58
34235;BME280;20500;49.856;20.290;2024-03-23T13:58:34;97259.02;;;18.49;49.28
34235;BME280;20500;49.856;20.290;2024-03-23T14:01:39;97255.77;;;18.54;49.14
34235;BME280;20500;49.856;20.290;2024-03-23T14:04:45;97249.87;;;18.57;48.94
34235;BME280;20500;49.856;20.290;2024-03-23T14:07:50;97244.30;;;18.59;48.80
34235;BME280;20500;49.856;20.290;2024-03-23T14:10:54;97242.48;;;18.56;48.77
34235;BME280;20500;49.856;20.290;2024-03-23T14:14:01;97236.26;;;18.60;48.63
34235;BME280;20500;49.856;20.290;2024-03-23T14:17:07;97234.31;;;18.75;48.62
34235;BME280;20500;49.856;20.290;2024-03-23T14:20:14;97232.83;;;18.78;48.48
34235;BME280;20500;49.856;20.290;2024-03-23T14:23:19;97225.15;;;18.80;48.30
34235;BME280;20500;49.856;20.290;2024-03-23T14:26:24;97220.98;;;18.91;48.18
34235;BME280;20500;49.856;20.290;2024-03-23T14:29:29;97214.16;;;18.99;47.90
34235;BME280;20500;49.856;20.290;2024-03-23T14:32:34;97212.44;;;19.02;47.58
34235;BME280;20500;49.856;20.290;2024-03-23T14:35:41;97202.06;;;19.07;47.60
34235;BME280;20500;49.856;20.290;2024-03-23T14:38:49;97193.95;;;19.19;47.47
34235;BME280;20500;49.856;20.290;2024-03-23T14:41:54;97196.13;;;19.25;47.24
34235;BME280;20500;49.856;20.290;2024-03-23T14:45:00;97204.61;;;19.17;47.21
34235;BME280;20500;49.856;20.290;2024-03-23T14:48:06;97206.80;;;19.08;47.26
34235;BME280;20500;49.856;20.290;2024-03-23T14:51:11;97204.26;;;18.97;46.94
34235;BME280;20500;49.856;20.290;2024-03-23T14:54:17;97211.46;;;18.84;46.83
34235;BME280;20500;49.856;20.290;2024-03-23T14:57:22;97218.60;;;18.70;46.81
34235;BME280;20500;49.856;20.290;2024-03-23T15:00:27;97236.92;;;18.55;46.55
34235;BME280;20500;49.856;20.290;2024-03-23T15:03:32;97341.41;;;18.40;46.57
34235;BME280;20500;49.856;20.290;2024-03-23T15:06:37;97451.17;;;18.22;46.75
34235;BME280;20500;49.856;20.290;2024-03-23T15:09:42;97493.61;;;17.65;47.17
34235;BME280;20500;49.856;20.290;2024-03-23T15:12:47;97508.88;;;16.78;47.47
34235;BME280;20500;49.856;20.290;2024-03-23T15:15:53;97543.51;;;16.07;47.76
34235;BME280;20500;49.856;20.290;2024-03-23T15:18:59;97544.13;;;15.38;48.02
34235;BME280;20500;49.856;20.290;2024-03-23T15:22:05;97540.99;;;14.85;48.46
34235;BME280;20500;49.856;20.290;2024-03-23T15:25:10;97549.46;;;14.44;48.70
34235;BME280;20500;49.856;20.290;2024-03-23T15:28:16;97561.09;;;14.15;48.93
34235;BME280;20500;49.856;20.290;2024-03-23T15:31:21;97563.21;;;13.91;49.21
34235;BME280;20500;49.856;20.290;2024-03-23T15:34:26;97564.71;;;13.68;49.54
34235;BME280;20500;49.856;20.290;2024-03-23T15:37:32;97590.10;;;13.54;50.04
34235;BME280;20500;49.856;20.290;2024-03-23T15:40:38;97586.65;;;13.40;50.52
34235;BME280;20500;49.856;20.290;2024-03-23T15:43:43;97576.73;;;13.32;50.98
34235;BME280;20500;49.856;20.290;2024-03-23T15:46:48;97581.48;;;13.24;51.18
34235;BME280;20500;49.856;20.290;2024-03-23T15:49:54;97587.34;;;13.14;51.51
34235;BME280;20500;49.856;20.290;2024-03-23T15:52:58;97586.52;;;13.08;51.95
34235;BME280;20500;49.856;20.290;2024-03-23T15:56:05;97578.23;;;13.00;52.11
34235;BME280;20500;49.856;20.290;2024-03-23T15:59:10;97580.01;;;12.97;52.51
34235;BME280;20500;49.856;20.290;2024-03-23T16:02:15;97579.98;;;12.96;52.61
34235;BME280;20500;49.856;20.290;2024-03-23T16:05:20;97599.98;;;12.91;52.84
34235;BME280;20500;49.856;20.290;2024-03-23T16:08:26;97608.09;;;12.85;53.14
34235;BME280;20500;49.856;20.290;2024-03-23T16:11:31;97611.59;;;12.84;53.47
34235;BME280;20500;49.856;20.290;2024-03-23T16:14:36;97620.97;;;12.83;53.74
34235;BME280;20500;49.856;20.290;2024-03-23T16:17:42;97630.92;;;12.78;53.84
34235;BME280;20500;49.856;20.290;2024-03-23T16:20:54;97638.31;;;12.69;53.93
34235;BME280;20500;49.856;20.290;2024-03-23T16:23:59;97656.45;;;12.59;54.32
34235;BME280;20500;49.856;20.290;2024-03-23T16:27:05;97664.69;;;12.52;54.23
34235;BME280;20500;49.856;20.290;2024-03-23T16:30:13;97668.11;;;12.40;54.65
34235;BME280;20500;49.856;20.290;2024-03-23T16:33:19;97657.36;;;12.29;54.95
34235;BME280;20500;49.856;20.290;2024-03-23T16:36:24;97666.08;;;12.19;55.28
34235;BME280;20500;49.856;20.290;2024-03-23T16:39:30;97676.47;;;12.09;55.38
34235;BME280;20500;49.856;20.290;2024-03-23T16:42:35;97682.65;;;12.01;55.55
34235;BME280;20500;49.856;20.290;2024-03-23T16:45:40;97690.66;;;11.96;55.66
34235;BME280;20500;49.856;20.290;2024-03-23T16:48:45;97698.73;;;11.85;55.86
34235;BME280;20500;49.856;20.290;2024-03-23T16:51:52;97694.84;;;11.77;56.15
34235;BME280;20500;49.856;20.290;2024-03-23T16:54:57;97688.39;;;11.74;56.51
34235;BME280;20500;49.856;20.290;2024-03-23T16:58:02;97698.27;;;11.67;56.80
34235;BME280;20500;49.856;20.290;2024-03-23T17:01:08;97695.96;;;11.58;57.03
34235;BME280;20500;49.856;20.290;2024-03-23T17:04:15;97689.44;;;11.50;57.51
34235;BME280;20500;49.856;20.290;2024-03-23T17:07:20;97687.02;;;11.44;57.54